createdAt,value
2019-04-26T00:01:05.608Z,13.60
2019-04-26T00:03:42.853Z,13.60
2019-04-26T00:06:12.349Z,13.60
2019-04-26T00:08:40.132Z,13.60
2019-04-26T00:11:29.485Z,13.60
2019-04-26T00:14:34.062Z,13.50
2019-04-26T00:17:26.210Z,13.50
2019-04-26T00:19:53.025Z,13.50
2019-04-26T00:22:19.992Z,13.50
2019-04-26T00:24:46.570Z,13.50
2019-04-26T00:27:13.112Z,13.40
2019-04-26T00:29:40.192Z,13.40
2019-04-26T00:32:06.813Z,13.40
2019-04-26T00:34:33.400Z,13.40
2019-04-26T00:36:59.969Z,13.40
2019-04-26T00:39:26.578Z,13.40
2019-04-26T00:41:53.159Z,13.30
2019-04-26T00:44:20.907Z,13.30
2019-04-26T00:46:47.997Z,13.30
2019-04-26T00:49:15.145Z,12.90
2019-04-26T00:51:42.049Z,13.30
2019-04-26T00:54:08.929Z,13.30
2019-04-26T00:56:35.547Z,13.20
2019-04-26T00:59:02.430Z,13.20
2019-04-26T01:01:30.785Z,13.20
2019-04-26T01:03:57.622Z,13.20
2019-04-26T01:06:26.985Z,13.20
2019-04-26T01:08:53.556Z,13.10
2019-04-26T01:11:20.161Z,13.10
2019-04-26T01:13:47.063Z,13.10
2019-04-26T01:16:13.661Z,13.10
2019-04-26T01:18:40.213Z,13.00
2019-04-26T01:21:06.827Z,13.10
2019-04-26T01:23:33.445Z,13.00
2019-04-26T01:26:00.027Z,13.00
2019-04-26T01:28:27.767Z,13.00
2019-04-26T01:30:54.562Z,13.00
2019-04-26T01:33:21.900Z,13.00
2019-04-26T01:35:48.489Z,12.90
2019-04-26T01:38:15.329Z,12.90
2019-04-26T01:40:43.828Z,12.90
2019-04-26T01:43:30.807Z,12.90
2019-04-26T01:46:02.499Z,12.90
2019-04-26T01:48:45.676Z,12.90
2019-04-26T01:51:12.601Z,12.70
2019-04-26T01:53:39.279Z,12.80
2019-04-26T01:56:06.012Z,12.80
2019-04-26T01:58:33.171Z,12.80
2019-04-26T02:01:11.562Z,12.80
2019-04-26T02:03:38.205Z,12.80
2019-04-26T02:06:04.769Z,12.80
2019-04-26T02:08:32.433Z,12.70
2019-04-26T02:10:59.208Z,12.70
2019-04-26T02:13:26.795Z,12.70
2019-04-26T02:15:53.548Z,12.70
2019-04-26T02:18:20.099Z,12.70
2019-04-26T02:20:46.700Z,12.70
2019-04-26T02:23:19.512Z,12.70
2019-04-26T02:25:46.164Z,12.70
2019-04-26T02:28:12.866Z,12.60
2019-04-26T02:30:39.602Z,12.60
2019-04-26T02:33:06.151Z,12.70
2019-04-26T02:35:34.087Z,12.60
2019-04-26T02:38:00.941Z,12.60
2019-04-26T02:40:29.548Z,12.60
2019-04-26T02:42:56.478Z,12.60
2019-04-26T02:45:41.368Z,12.60
2019-04-26T02:48:24.303Z,12.60
2019-04-26T02:50:53.859Z,12.30
2019-04-26T02:53:20.473Z,12.60
2019-04-26T02:55:47.384Z,12.60
2019-04-26T02:58:13.974Z,12.50
2019-04-26T03:00:40.552Z,12.50
2019-04-26T03:03:07.226Z,12.50
2019-04-26T03:05:35.499Z,12.50
2019-04-26T03:08:03.666Z,12.50
2019-04-26T03:10:31.909Z,12.50
2019-04-26T03:12:59.246Z,12.50
2019-04-26T03:15:51.090Z,12.50
2019-04-26T03:18:49.638Z,12.50
2019-04-26T03:21:16.262Z,12.50
2019-04-26T03:23:57.132Z,12.50
2019-04-26T03:26:11.597Z,12.50
2019-04-26T03:28:39.971Z,12.50
2019-04-26T03:31:06.882Z,12.50
2019-04-26T03:33:38.871Z,12.50
2019-04-26T03:36:21.523Z,12.40
2019-04-26T03:38:50.785Z,12.40
2019-04-26T03:41:21.194Z,12.40
2019-04-26T03:43:47.881Z,12.40
2019-04-26T03:46:14.815Z,12.40
2019-04-26T03:48:43.014Z,12.40
2019-04-26T03:51:09.909Z,12.30
2019-04-26T03:53:38.148Z,12.40
2019-04-26T03:56:06.219Z,12.40
2019-04-26T03:58:37.772Z,12.40
2019-04-26T04:01:07.292Z,12.40
2019-04-26T04:03:45.410Z,12.40
2019-04-26T04:06:14.267Z,12.40
2019-04-26T04:08:42.859Z,12.40
2019-04-26T04:11:09.411Z,12.40
2019-04-26T04:13:42.687Z,12.40
2019-04-26T04:16:08.805Z,12.40
2019-04-26T04:18:35.375Z,12.40
2019-04-26T04:21:13.528Z,12.40
2019-04-26T04:23:42.879Z,12.40
2019-04-26T04:26:09.550Z,12.40
2019-04-26T04:28:36.142Z,12.40
2019-04-26T04:31:03.073Z,12.40
2019-04-26T04:33:30.139Z,12.40
2019-04-26T04:35:57.893Z,12.30
2019-04-26T04:38:26.821Z,12.40
2019-04-26T04:41:28.095Z,12.30
2019-04-26T04:44:01.017Z,12.30
2019-04-26T04:46:39.031Z,12.30
2019-04-26T04:49:09.342Z,12.30
2019-04-26T04:51:36.021Z,12.30
2019-04-26T04:54:03.233Z,12.30
2019-04-26T04:56:30.388Z,12.30
2019-04-26T04:58:57.120Z,12.30
2019-04-26T05:02:01.618Z,12.30
2019-04-26T05:04:30.126Z,12.30
2019-04-26T05:07:05.118Z,12.30
2019-04-26T05:09:31.810Z,12.30
2019-04-26T05:11:58.742Z,12.30
2019-04-26T05:14:25.393Z,12.30
2019-04-26T05:16:52.611Z,12.30
2019-04-26T05:19:29.132Z,12.30
2019-04-26T05:21:55.769Z,12.30
2019-04-26T05:24:22.334Z,12.30
2019-04-26T05:27:07.816Z,12.30
2019-04-26T05:29:35.578Z,12.20
2019-04-26T05:32:04.226Z,12.30
2019-04-26T05:34:35.510Z,12.30
2019-04-26T05:37:02.943Z,12.30
2019-04-26T05:39:29.669Z,12.30
2019-04-26T05:41:58.358Z,12.30
2019-04-26T05:44:26.793Z,11.90
2019-04-26T05:47:03.776Z,12.30
2019-04-26T05:49:53.770Z,12.30
2019-04-26T05:52:22.985Z,12.30
2019-04-26T05:54:59.183Z,12.30
2019-04-26T05:57:28.873Z,12.30
2019-04-26T05:59:56.747Z,12.30
2019-04-26T06:02:44.089Z,12.40
2019-04-26T06:05:24.278Z,12.40
2019-04-26T06:07:56.385Z,12.60
2019-04-26T06:10:32.822Z,12.80
2019-04-26T06:13:03.031Z,12.80
2019-04-26T06:15:39.048Z,12.90
2019-04-26T06:18:31.155Z,12.90
2019-04-26T06:20:58.177Z,12.90
2019-04-26T06:23:25.093Z,12.90
2019-04-26T06:25:58.327Z,12.90
2019-04-26T06:28:26.018Z,12.90
2019-04-26T06:30:54.067Z,12.90
2019-04-26T06:33:21.324Z,12.90
2019-04-26T06:35:49.160Z,13.00
2019-04-26T06:38:17.689Z,13.00
2019-04-26T06:40:44.397Z,13.00
2019-04-26T06:43:45.845Z,13.00
2019-04-26T06:46:34.934Z,13.00
2019-04-26T06:49:08.575Z,13.00
2019-04-26T06:51:35.260Z,13.00
2019-04-26T06:54:02.108Z,13.00
2019-04-26T06:56:30.614Z,13.00
2019-04-26T06:58:57.956Z,13.00
2019-04-26T07:01:26.113Z,13.10
2019-04-26T07:03:53.339Z,13.10
2019-04-26T07:06:20.186Z,13.10
2019-04-26T07:08:56.596Z,13.10
2019-04-26T07:11:23.205Z,13.10
2019-04-26T07:13:52.693Z,13.10
2019-04-26T07:16:23.056Z,13.20
2019-04-26T07:18:48.654Z,13.20
2019-04-26T07:21:21.928Z,13.20
2019-04-26T07:24:02.863Z,13.20
2019-04-26T07:26:30.403Z,13.20
2019-04-26T07:28:57.554Z,13.30
2019-04-26T07:31:24.278Z,13.30
2019-04-26T07:33:51.685Z,13.40
2019-04-26T07:36:18.596Z,13.40
2019-04-26T07:39:10.398Z,13.40
2019-04-26T07:41:37.261Z,13.00
2019-04-26T07:44:05.992Z,13.50
2019-04-26T07:46:32.893Z,13.50
2019-04-26T07:49:00.135Z,13.60
2019-04-26T07:51:27.017Z,13.60
2019-04-26T07:53:53.964Z,13.70
2019-04-26T07:56:20.925Z,13.70
2019-04-26T07:58:47.590Z,13.80
2019-04-26T08:01:21.747Z,13.80
2019-04-26T08:03:53.991Z,13.80
2019-04-26T08:06:21.373Z,13.90
2019-04-26T08:08:47.955Z,13.90
2019-04-26T08:11:14.992Z,14.00
2019-04-26T08:13:42.119Z,14.10
2019-04-26T08:16:26.767Z,14.10
2019-04-26T08:18:59.240Z,14.10
2019-04-26T08:21:32.307Z,14.20
2019-04-26T08:24:07.918Z,14.20
2019-04-26T08:26:34.763Z,14.30
2019-04-26T08:29:01.646Z,14.40
2019-04-26T08:31:28.511Z,14.40
2019-04-26T08:33:59.321Z,14.50
2019-04-26T08:36:27.165Z,14.50
2019-04-26T08:38:54.824Z,14.60
2019-04-26T08:41:21.855Z,14.70
2019-04-26T08:44:14.706Z,14.80
2019-04-26T08:47:20.973Z,14.80
2019-04-26T08:52:26.702Z,14.90
2019-04-26T08:54:54.958Z,15.00
2019-04-26T08:57:21.621Z,15.00
2019-04-26T08:59:48.240Z,15.10
2019-04-26T09:02:25.854Z,15.20
2019-04-26T09:05:15.156Z,15.20
2019-04-26T09:07:41.966Z,15.30
2019-04-26T09:10:11.176Z,15.30
2019-04-26T09:12:37.098Z,15.40
2019-04-26T09:15:05.412Z,15.40
2019-04-26T09:17:33.540Z,15.50
2019-04-26T09:20:07.028Z,15.50
2019-04-26T09:22:41.376Z,15.60
2019-04-26T09:25:22.610Z,15.60
2019-04-26T09:27:58.996Z,15.70
2019-04-26T09:30:34.533Z,15.80
2019-04-26T09:33:14.387Z,15.70
2019-04-26T09:35:43.297Z,15.90
2019-04-26T09:38:09.905Z,15.80
2019-04-26T09:40:37.089Z,16.00
2019-04-26T09:43:35.664Z,16.00
2019-04-26T09:46:24.587Z,16.10
2019-04-26T09:48:57.229Z,16.10
2019-04-26T09:51:24.036Z,16.20
2019-04-26T09:53:51.014Z,16.30
2019-04-26T09:56:18.086Z,16.30
2019-04-26T09:58:45.229Z,16.60
2019-04-26T10:01:12.018Z,16.40
2019-04-26T10:03:38.897Z,16.40
2019-04-26T10:06:08.062Z,16.50
2019-04-26T10:08:34.536Z,16.50
2019-04-26T10:11:01.405Z,16.60
2019-04-26T10:13:40.802Z,16.60
2019-04-26T10:16:33.398Z,16.70
2019-04-26T10:19:01.774Z,16.90
2019-04-26T10:21:28.437Z,16.80
2019-04-26T10:23:55.333Z,16.80
2019-04-26T10:26:23.242Z,16.90
2019-04-26T10:28:52.147Z,16.90
2019-04-26T10:31:19.096Z,17.00
2019-04-26T10:33:45.898Z,17.00
2019-04-26T10:36:12.623Z,17.10
2019-04-26T10:38:39.533Z,17.10
2019-04-26T10:41:06.221Z,17.20
2019-04-26T10:43:32.783Z,17.20
2019-04-26T10:45:59.441Z,17.30
2019-04-26T10:48:26.372Z,17.30
2019-04-26T10:50:53.679Z,17.40
2019-04-26T10:53:40.227Z,17.50
2019-04-26T10:56:29.140Z,17.50
2019-04-26T10:59:18.255Z,17.60
2019-04-26T11:01:45.162Z,17.60
2019-04-26T11:04:13.677Z,17.70
2019-04-26T11:06:40.302Z,17.70
2019-04-26T11:09:06.987Z,17.80
2019-04-26T11:11:33.963Z,17.80
2019-04-26T11:14:00.531Z,17.90
2019-04-26T11:16:27.275Z,18.00
2019-04-26T11:18:57.206Z,18.00
2019-04-26T11:21:26.125Z,18.00
2019-04-26T11:23:53.116Z,18.10
2019-04-26T11:26:21.829Z,18.10
2019-04-26T11:28:51.445Z,18.20
2019-04-26T11:31:17.146Z,18.30
2019-04-26T11:33:45.136Z,18.30
2019-04-26T11:36:11.980Z,18.30
2019-04-26T11:38:38.876Z,18.40
2019-04-26T11:41:06.791Z,18.40
2019-04-26T11:43:33.682Z,18.40
2019-04-26T11:46:04.597Z,18.50
2019-04-26T11:48:30.554Z,18.50
2019-04-26T11:50:57.244Z,18.60
2019-04-26T11:53:24.396Z,18.60
2019-04-26T11:55:51.097Z,18.70
2019-04-26T11:58:22.009Z,18.80
2019-04-26T12:00:51.616Z,18.70
2019-04-26T12:03:21.269Z,18.80
2019-04-26T12:06:00.418Z,18.80
2019-04-26T12:08:35.774Z,18.80
2019-04-26T12:11:03.040Z,18.90
2019-04-26T12:13:29.703Z,18.90
2019-04-26T12:15:56.406Z,19.00
2019-04-26T12:18:23.222Z,19.00
2019-04-26T12:20:49.934Z,19.00
2019-04-26T12:23:20.566Z,19.10
2019-04-26T12:25:48.074Z,19.10
2019-04-26T12:28:13.797Z,19.10
2019-04-26T12:30:40.372Z,19.10
2019-04-26T12:33:06.991Z,19.20
2019-04-26T12:35:33.726Z,19.20
2019-04-26T12:38:00.569Z,19.20
2019-04-26T12:40:27.238Z,19.20
2019-04-26T12:42:53.906Z,19.30
2019-04-26T12:45:29.886Z,19.30
2019-04-26T12:47:58.391Z,19.30
2019-04-26T12:50:37.737Z,19.30
2019-04-26T12:53:04.752Z,19.40
2019-04-26T12:55:32.120Z,19.30
2019-04-26T12:57:58.715Z,19.40
2019-04-26T13:00:28.473Z,19.30
2019-04-26T13:02:57.369Z,19.40
2019-04-26T13:05:24.512Z,19.40
2019-04-26T13:07:52.970Z,19.40
2019-04-26T13:10:38.517Z,19.40
2019-04-26T13:13:16.382Z,19.40
2019-04-26T13:16:21.815Z,19.40
2019-04-26T13:18:46.976Z,19.40
2019-04-26T13:21:13.685Z,19.40
2019-04-26T13:23:41.005Z,19.40
2019-04-26T13:26:07.629Z,19.50
2019-04-26T13:28:34.715Z,19.50
2019-04-26T13:31:02.340Z,19.50
2019-04-26T13:33:29.633Z,19.50
2019-04-26T13:36:02.630Z,19.50
2019-04-26T13:38:24.759Z,19.50
2019-04-26T13:40:51.771Z,19.50
2019-04-26T13:43:18.392Z,19.50
2019-04-26T13:45:59.700Z,19.60
2019-04-26T13:48:35.359Z,19.60
2019-04-26T13:51:07.200Z,19.50
2019-04-26T13:53:33.806Z,19.60
2019-04-26T13:56:01.905Z,19.60
2019-04-26T13:58:29.001Z,19.60
2019-04-26T14:00:55.581Z,19.60
2019-04-26T14:03:22.349Z,19.60
2019-04-26T14:05:48.974Z,19.60
2019-04-26T14:08:17.658Z,19.60
2019-04-26T14:10:45.583Z,19.50
2019-04-26T14:13:13.005Z,19.60
2019-04-26T14:15:44.005Z,19.60
2019-04-26T14:18:08.362Z,19.60
2019-04-26T14:20:35.728Z,19.60
2019-04-26T14:23:20.622Z,19.70
2019-04-26T14:26:05.340Z,19.70
2019-04-26T14:28:32.512Z,19.70
2019-04-26T14:30:59.110Z,19.70
2019-04-26T14:33:27.054Z,19.70
2019-04-26T14:35:54.284Z,19.70
2019-04-26T14:38:27.793Z,19.70
2019-04-26T14:40:56.904Z,19.70
2019-04-26T14:43:18.327Z,19.60
2019-04-26T14:45:55.641Z,19.70
2019-04-26T14:48:22.230Z,19.60
2019-04-26T14:50:44.012Z,19.60
2019-04-26T14:53:11.249Z,19.60
2019-04-26T14:55:37.903Z,19.60
2019-04-26T14:58:04.586Z,19.60
2019-04-26T15:00:33.981Z,19.60
2019-04-26T15:03:17.317Z,19.60
2019-04-26T15:06:02.938Z,19.60
2019-04-26T15:08:32.089Z,19.60
2019-04-26T15:11:01.227Z,19.60
2019-04-26T15:13:26.711Z,19.50
2019-04-26T15:15:53.693Z,19.50
2019-04-26T15:18:20.247Z,19.50
2019-04-26T15:20:47.321Z,19.50
2019-04-26T15:23:14.026Z,19.50
2019-04-26T15:25:41.425Z,19.50
2019-04-26T15:28:12.050Z,19.50
2019-04-26T15:30:43.274Z,19.40
2019-04-26T15:33:09.002Z,19.40
2019-04-26T15:35:36.601Z,19.40
2019-04-26T15:38:03.710Z,19.40
2019-04-26T15:41:07.401Z,19.40
2019-04-26T15:43:38.626Z,19.40
2019-04-26T15:46:26.930Z,19.30
2019-04-26T15:49:16.482Z,19.30
2019-04-26T15:51:43.068Z,19.30
2019-04-26T15:54:09.897Z,19.20
2019-04-26T15:56:36.471Z,19.20
2019-04-26T15:59:03.058Z,19.20
2019-04-26T16:01:29.901Z,19.20
2019-04-26T16:03:56.733Z,19.10
2019-04-26T16:06:24.863Z,19.10
2019-04-26T16:08:52.401Z,19.10
2019-04-26T16:11:19.450Z,19.10
2019-04-26T16:13:54.130Z,19.00
2019-04-26T16:16:20.717Z,19.00
2019-04-26T16:18:49.910Z,19.00
2019-04-26T16:21:17.828Z,19.00
2019-04-26T16:23:51.132Z,18.90
2019-04-26T16:26:15.322Z,18.90
2019-04-26T16:32:04.552Z,18.90
2019-04-26T16:34:32.460Z,18.80
2019-04-26T16:37:00.118Z,18.80
2019-04-26T16:39:32.246Z,18.80
2019-04-26T16:41:59.384Z,18.80
2019-04-26T16:44:29.516Z,18.80
2019-04-26T16:47:01.044Z,18.80
2019-04-26T16:49:23.436Z,18.80
2019-04-26T16:51:54.571Z,18.80
2019-04-26T16:54:21.891Z,18.70
2019-04-26T16:56:47.942Z,18.80
2019-04-26T16:59:22.664Z,18.70
2019-04-26T17:00:35.777Z,18.90
2019-04-26T17:01:47.416Z,18.70
2019-04-26T17:04:14.186Z,18.70
2019-04-26T17:06:44.751Z,18.60
2019-04-26T17:09:09.394Z,18.50
2019-04-26T17:11:41.124Z,18.60
2019-04-26T17:14:09.989Z,18.60
2019-04-26T17:16:38.037Z,18.60
2019-04-26T17:19:02.590Z,18.60
2019-04-26T17:21:34.608Z,18.60
2019-04-26T17:24:20.339Z,18.60
2019-04-26T17:26:50.611Z,18.50
2019-04-26T17:29:17.358Z,18.50
2019-04-26T17:31:44.021Z,18.50
2019-04-26T17:34:12.679Z,18.50
2019-04-26T17:36:41.270Z,18.40
2019-04-26T17:39:11.011Z,18.40
2019-04-26T17:41:37.969Z,18.40
2019-04-26T17:44:10.615Z,18.40
2019-04-26T17:46:33.357Z,18.40
2019-04-26T17:49:00.478Z,18.40
2019-04-26T17:51:27.396Z,18.30
2019-04-26T17:54:18.975Z,18.30
2019-04-26T17:56:26.094Z,18.30
2019-04-26T17:58:54.322Z,18.30
2019-04-26T18:01:41.166Z,18.30
2019-04-26T18:03:52.033Z,18.20
2019-04-26T18:06:29.119Z,18.20
2019-04-26T18:08:52.326Z,18.20
2019-04-26T18:11:19.692Z,18.10
2019-04-26T18:13:43.077Z,18.10
2019-04-26T18:16:09.820Z,18.10
2019-04-26T18:19:02.650Z,18.10
2019-04-26T18:21:59.563Z,18.00
2019-04-26T18:24:23.557Z,18.10
2019-04-26T18:26:52.263Z,18.00
2019-04-26T18:29:18.746Z,18.00
2019-04-26T18:31:45.414Z,17.90
2019-04-26T18:34:12.813Z,17.90
2019-04-26T18:36:39.568Z,17.90
2019-04-26T18:39:06.369Z,17.80
2019-04-26T18:41:34.156Z,17.80
2019-04-26T18:44:02.946Z,17.80
2019-04-26T18:46:40.560Z,17.80
2019-04-26T18:49:05.190Z,17.70
2019-04-26T18:51:33.438Z,17.70
2019-04-26T18:54:09.223Z,17.70
2019-04-26T18:56:39.615Z,17.60
2019-04-26T18:59:07.260Z,17.60
2019-04-26T19:01:38.018Z,17.60
2019-04-26T19:04:09.483Z,17.60
2019-04-26T19:06:32.312Z,17.50
2019-04-26T19:09:02.363Z,17.50
2019-04-26T19:11:28.256Z,17.50
2019-04-26T19:14:06.545Z,17.50
2019-04-26T19:16:59.238Z,17.40
2019-04-26T19:19:32.751Z,17.40
2019-04-26T19:22:03.314Z,17.30
2019-04-26T19:24:30.252Z,17.30
2019-04-26T19:26:56.938Z,17.30
2019-04-26T19:29:31.372Z,17.30
2019-04-26T19:31:52.407Z,17.30
2019-04-26T19:34:19.198Z,17.20
2019-04-26T19:36:45.793Z,17.20
2019-04-26T19:39:13.832Z,17.10
2019-04-26T19:41:41.970Z,17.10
2019-04-26T19:44:08.727Z,17.10
2019-04-26T19:46:45.417Z,17.00
2019-04-26T19:49:36.803Z,17.00
2019-04-26T19:52:12.097Z,17.00
2019-04-26T19:54:42.650Z,17.00
2019-04-26T19:57:15.223Z,16.90
2019-04-26T19:59:42.349Z,16.90
2019-04-26T20:02:09.028Z,16.80
2019-04-26T20:04:36.032Z,16.80
2019-04-26T20:07:02.928Z,16.80
2019-04-26T20:09:29.546Z,16.70
2019-04-26T20:11:57.927Z,16.70
2019-04-26T20:14:39.500Z,16.70
2019-04-26T20:16:54.394Z,16.60
2019-04-26T20:19:33.726Z,16.60
2019-04-26T20:21:50.586Z,16.60
2019-04-26T20:24:19.379Z,16.50
2019-04-26T20:26:48.540Z,16.50
2019-04-26T20:29:14.875Z,16.40
2019-04-26T20:32:02.079Z,16.50
2019-04-26T20:34:29.001Z,16.40
2019-04-26T20:36:55.900Z,16.40
2019-04-26T20:39:24.086Z,16.30
2019-04-26T20:42:00.666Z,16.30
2019-04-26T20:44:23.769Z,16.20
2019-04-26T20:46:48.485Z,16.20
2019-04-26T20:49:19.302Z,16.20
2019-04-26T20:51:46.378Z,16.10
2019-04-26T20:54:16.253Z,16.10
2019-04-26T20:56:46.251Z,16.10
2019-04-26T20:59:11.855Z,16.00
2019-04-26T21:01:38.648Z,16.00
2019-04-26T21:04:05.489Z,15.90
2019-04-26T21:06:33.816Z,15.90
2019-04-26T21:09:03.344Z,15.90
2019-04-26T21:11:30.385Z,15.80
2019-04-26T21:14:01.856Z,15.80
2019-04-26T21:16:26.347Z,15.50
2019-04-26T21:18:54.122Z,15.70
2019-04-26T21:21:21.807Z,15.70
2019-04-26T21:23:50.106Z,15.70
2019-04-26T21:26:34.988Z,15.60
2019-04-26T21:29:20.509Z,15.60
2019-04-26T21:32:01.206Z,15.60
2019-04-26T21:34:31.139Z,15.60
2019-04-26T21:37:20.485Z,15.50
2019-04-26T21:40:06.048Z,15.50
2019-04-26T21:42:33.375Z,15.40
2019-04-26T21:45:00.041Z,15.40
2019-04-26T21:47:27.658Z,15.30
2019-04-26T21:49:59.076Z,15.30
2019-04-26T21:52:27.598Z,15.30
2019-04-26T21:54:53.109Z,15.30
2019-04-26T21:57:27.597Z,15.30
2019-04-26T21:59:54.028Z,15.20
2019-04-26T22:02:21.450Z,15.20
2019-04-26T22:04:48.309Z,15.20
2019-04-26T22:07:16.701Z,15.10
2019-04-26T22:09:55.163Z,15.10
2019-04-26T22:12:23.276Z,15.10
2019-04-26T22:15:00.754Z,15.10
2019-04-26T22:17:36.523Z,15.10
2019-04-26T22:20:12.575Z,15.00
2019-04-26T22:23:03.969Z,15.00
2019-04-26T22:25:33.265Z,15.00
2019-04-26T22:28:00.476Z,14.90
2019-04-26T22:30:29.573Z,14.90
2019-04-26T22:32:58.582Z,14.90
2019-04-26T22:35:25.590Z,14.90
2019-04-26T22:37:53.630Z,14.90
2019-04-26T22:40:20.552Z,14.80
2019-04-26T22:42:49.731Z,14.80
2019-04-26T22:45:23.465Z,14.80
2019-04-26T22:48:03.432Z,14.80
2019-04-26T22:50:30.317Z,14.70
2019-04-26T22:52:57.159Z,14.70
2019-04-26T22:55:27.368Z,14.70
2019-04-26T22:57:53.065Z,14.70
2019-04-26T23:00:24.605Z,14.60
2019-04-26T23:02:48.364Z,14.60
2019-04-26T23:05:15.130Z,14.60
2019-04-26T23:07:42.142Z,14.60
2019-04-26T23:10:10.406Z,14.50
2019-04-26T23:13:04.498Z,14.50
2019-04-26T23:15:46.893Z,14.50
2019-04-26T23:18:38.700Z,14.50
2019-04-26T23:21:11.957Z,14.50
2019-04-26T23:23:37.196Z,14.40
2019-04-26T23:26:06.207Z,14.10
2019-04-26T23:28:36.904Z,14.40
2019-04-26T23:31:07.865Z,14.40
2019-04-26T23:33:30.898Z,14.30
2019-04-26T23:35:57.716Z,14.30
2019-04-26T23:38:24.461Z,14.30
2019-04-26T23:40:51.153Z,14.30
2019-04-26T23:43:22.514Z,14.30
2019-04-26T23:45:48.363Z,14.20
2019-04-26T23:48:14.787Z,14.20
2019-04-26T23:50:42.850Z,14.20
2019-04-26T23:53:10.388Z,14.20
2019-04-26T23:55:38.086Z,14.20
2019-04-26T23:58:10.782Z,14.10
